»·PEaware :: N4217L KSNA-KBUR

N4217L :: KSNA-KBUR

FLIGHT INFORMATION

Flight Status: Arrived
Operator: Privately registered:
United States
More flights under this callsign
Pilot: James F. (31917)
Aircraft: PIPER PA-44 SEMINOLE
(PA44)
More flights by this aircraft type
Origin: KSNA John Wayne-Orange Co
United States
Destination: KBUR Bob Hope-Burbank
United States
More flights between these airports :: More routes between these airports
Route: +SLI V23 POPPR SMO125 SMO SMO311 SILEX+
File this flight plan on PilotEdge
Remarks: TEC route CSTP1
Altitude:
(Current/Filed)
4,000ft
Speed:
(Current/Filed)
130kts
Departed: 30-Nov-20 07:11 PM
Arrived: 30-Nov-20 07:44 PM
Distance/Time
Traveled:
40nm/0:33
Distance/Time
To Go:
Arrived

Flight Plot

Page will automatically refresh every two minutes.


Map Options




Map Legend


Flown Route
Filed Route
Departure Airport
Arrival Airport
Navaid (VOR, NDB)
Fix

Horizontal Profiles

Position Reports

Time Latitude Longitude Heading Altitude Ground
Speed
30-Nov-20 18:53 33.674780 -117.871603 356 53ft 0kts
30-Nov-20 18:54 33.674780 -117.871603 356 53ft 0kts
30-Nov-20 18:55 33.674780 -117.871603 356 53ft 0kts
30-Nov-20 18:56 33.674780 -117.871603 356 53ft 0kts
30-Nov-20 18:58 33.674780 -117.871603 356 53ft 0kts
30-Nov-20 18:58 33.674780 -117.871603 356 53ft 0kts
30-Nov-20 18:59 33.674780 -117.871603 356 53ft 0kts
30-Nov-20 19:00 33.674780 -117.871603 356 53ft 0kts
30-Nov-20 19:01 33.674780 -117.871603 356 53ft 0kts
30-Nov-20 19:02 33.674780 -117.871603 356 53ft 0kts
30-Nov-20 19:03 33.674780 -117.871603 356 53ft 0kts
30-Nov-20 19:04 33.674780 -117.871603 356 53ft 0kts
30-Nov-20 19:05 33.674780 -117.871603 356 53ft 0kts
30-Nov-20 19:06 33.675274 -117.870657 41 54ft 11kts
30-Nov-20 19:07 33.679669 -117.867963 16 47ft 22kts
30-Nov-20 19:08 33.681206 -117.866415 119 43ft 0kts
30-Nov-20 19:09 33.680111 -117.866060 207 45ft 23kts
30-Nov-20 19:10 33.659159 -117.883861 228 1081ft 120kts
30-Nov-20 19:11 33.636303 -117.919071 233 1983ft 151kts
30-Nov-20 19:12 33.610168 -117.960866 233 1983ft 157kts
30-Nov-20 19:13 33.587420 -117.997310 233 3363ft 124kts
30-Nov-20 19:14 33.564603 -118.033421 237 3939ft 151kts
30-Nov-20 19:15 33.589753 -118.058291 355 3998ft 148kts
30-Nov-20 19:16 33.627804 -118.077125 323 3998ft 150kts
30-Nov-20 19:17 33.658800 -118.110153 319 3995ft 141kts
30-Nov-20 19:18 33.689393 -118.138176 323 3993ft 138kts
30-Nov-20 19:19 33.718958 -118.167738 321 3993ft 138kts
30-Nov-20 19:20 33.748930 -118.196558 321 3994ft 138kts
30-Nov-20 19:21 33.778652 -118.225797 321 3995ft 138kts
30-Nov-20 19:22 33.808495 -118.254851 321 3996ft 138kts
30-Nov-20 19:23 33.838289 -118.284060 321 3996ft 138kts
30-Nov-20 19:24 33.868148 -118.313303 319 3997ft 138kts
30-Nov-20 19:25 33.897641 -118.342931 321 3996ft 138kts
30-Nov-20 19:26 33.927021 -118.372701 321 3997ft 138kts
30-Nov-20 19:27 33.956543 -118.402506 321 3995ft 138kts
30-Nov-20 19:28 33.985413 -118.431638 321 3997ft 138kts
30-Nov-20 19:29 34.014770 -118.461270 321 3994ft 138kts
30-Nov-20 19:30 34.044986 -118.491181 321 3530ft 140kts
30-Nov-20 19:31 34.073749 -118.519619 322 3315ft 136kts
30-Nov-20 19:32 34.100700 -118.551898 300 3350ft 139kts
30-Nov-20 19:33 34.116114 -118.594678 293 3333ft 138kts
30-Nov-20 19:34 34.138687 -118.627994 350 3341ft 135kts
30-Nov-20 19:35 34.176068 -118.628148 19 3327ft 134kts
30-Nov-20 19:36 34.198700 -118.593284 65 3321ft 135kts
30-Nov-20 19:37 34.200474 -118.548061 95 3314ft 137kts
30-Nov-20 19:38 34.199992 -118.501000 88 2923ft 149kts
30-Nov-20 19:39 34.198980 -118.456606 87 2150ft 112kts
30-Nov-20 19:40 34.198597 -118.423328 87 1636ft 95kts
30-Nov-20 19:41 34.198147 -118.391680 91 1150ft 93kts
30-Nov-20 19:42 34.197798 -118.362249 89 717ft 60kts
30-Nov-20 19:43 34.196870 -118.360518 257 715ft 10kts
30-Nov-20 19:44 34.196170 -118.364287 233 722ft 0kts
30-Nov-20 19:45 34.196170 -118.364287 233 722ft 0kts
30-Nov-20 19:46 34.196170 -118.364287 233 722ft 0kts
30-Nov-20 19:47 34.196170 -118.364287 233 722ft 0kts
30-Nov-20 19:48 34.196170 -118.364287 233 722ft 0kts
30-Nov-20 19:49 34.196170 -118.364287 233 722ft 0kts
30-Nov-20 19:50 34.196170 -118.364287 233 722ft 0kts
30-Nov-20 19:51 34.196170 -118.364287 233 722ft 0kts
30-Nov-20 19:52 34.196170 -118.364287 233 722ft 0kts
30-Nov-20 19:53 34.196170 -118.364287 233 722ft 0kts
30-Nov-20 19:54 34.196170 -118.364287 233 722ft 0kts
30-Nov-20 19:55 34.196170 -118.364287 233 722ft 0kts
30-Nov-20 19:56 34.196170 -118.364287 233 722ft 0kts
30-Nov-20 19:57 34.196170 -118.364287 233 722ft 0kts
30-Nov-20 19:59 34.196170 -118.364287 233 722ft 0kts

Navigation Log

Ident Type
Flight plan parsing failed, navigation log unavailable